createdAt,value
2018-07-25T00:06:51.671Z,27.0
2018-07-25T00:23:47.549Z,26.7
2018-07-25T00:40:41.921Z,26.7
2018-07-25T00:57:36.748Z,26.4
2018-07-25T01:14:31.436Z,26.4
2018-07-25T01:31:25.823Z,26.4
2018-07-25T01:48:20.204Z,26.1
2018-07-25T02:05:14.274Z,25.8
2018-07-25T02:22:07.935Z,25.8
2018-07-25T02:39:01.605Z,25.8
2018-07-25T02:55:55.277Z,25.4
2018-07-25T03:12:48.876Z,25.8
2018-07-25T03:29:42.395Z,25.4
2018-07-25T03:46:35.838Z,25.4
2018-07-25T04:03:28.991Z,25.1
2018-07-25T04:20:21.913Z,24.8
2018-07-25T04:37:14.769Z,25.1
2018-07-25T04:54:07.816Z,25.1
2018-07-25T05:04:15.217Z,24.5
2018-07-25T05:17:45.258Z,25.1
2018-07-25T05:27:53.373Z,25.8
2018-07-25T05:39:43.488Z,26.4
2018-07-25T05:56:38.070Z,26.7
2018-07-25T06:13:33.344Z,27.0
2018-07-25T06:30:28.741Z,27.0
2018-07-25T06:47:24.233Z,27.0
2018-07-25T07:04:19.871Z,27.4
2018-07-25T07:21:15.824Z,27.4
2018-07-25T07:38:11.942Z,28.0
2018-07-25T07:55:08.289Z,28.0
2018-07-25T08:12:05.432Z,28.3
2018-07-25T08:29:02.073Z,28.3
2018-07-25T08:45:59.139Z,28.6
2018-07-25T09:02:56.437Z,29.0
2018-07-25T09:19:54.065Z,29.0
2018-07-25T09:36:51.972Z,29.3
2018-07-25T09:53:50.169Z,29.6
2018-07-25T10:10:48.751Z,29.6
2018-07-25T10:27:47.441Z,29.9
2018-07-25T10:44:46.114Z,29.9
2018-07-25T11:01:51.305Z,30.2
2018-07-25T11:18:44.740Z,30.6
2018-07-25T11:35:44.443Z,30.6
2018-07-25T11:52:44.361Z,30.9
2018-07-25T12:09:44.399Z,31.2
2018-07-25T12:26:44.876Z,31.2
2018-07-25T12:43:45.093Z,30.9
2018-07-25T13:00:45.441Z,30.9
2018-07-25T13:17:45.307Z,30.9
2018-07-25T13:24:33.366Z,30.9
2018-07-25T13:41:33.742Z,31.2
2018-07-25T13:58:34.231Z,31.2
2018-07-25T14:10:28.673Z,31.2
2018-07-25T14:27:29.371Z,31.5
2018-07-25T14:44:29.992Z,31.2
2018-07-25T15:01:30.566Z,31.2
2018-07-25T15:18:31.359Z,31.2
2018-07-25T15:35:31.867Z,31.2
2018-07-25T15:52:32.380Z,30.9
2018-07-25T16:09:32.694Z,30.9
2018-07-25T16:26:32.665Z,30.6
2018-07-25T16:43:32.500Z,30.2
2018-07-25T17:00:31.904Z,29.9
2018-07-25T17:17:31.122Z,29.9
2018-07-25T17:31:06.277Z,29.3
2018-07-25T17:48:04.798Z,29.3
2018-07-25T18:05:02.993Z,29.0
2018-07-25T18:22:01.000Z,28.6
2018-07-25T18:38:58.850Z,28.3
2018-07-25T18:55:56.312Z,28.3
2018-07-25T19:11:13.672Z,27.7
2018-07-25T19:28:07.619Z,27.7
2018-07-25T19:45:03.376Z,27.4
2018-07-25T20:02:00.655Z,27.4
2018-07-25T20:18:54.718Z,27.4
2018-07-25T20:35:51.130Z,26.7
2018-07-25T20:52:47.291Z,26.7
2018-07-25T21:09:39.157Z,26.4
2018-07-25T21:26:33.418Z,26.1
2018-07-25T21:43:27.550Z,26.4
2018-07-25T22:00:21.974Z,26.7
2018-07-25T22:17:16.850Z,26.7
2018-07-25T22:34:11.916Z,26.7
2018-07-25T22:51:06.981Z,26.7
2018-07-25T23:08:02.244Z,26.7
2018-07-25T23:24:57.560Z,26.7
2018-07-25T23:41:52.111Z,26.7
2018-07-25T23:58:47.079Z,26.7
